sensor_id;sensor_type;location;lat;lon;timestamp;temperature;humidity
51615;DHT22;37695;52.960;6.188;2022-12-07T00:01:41;3.80;99.90
51615;DHT22;37695;52.960;6.188;2022-12-07T00:04:10;3.70;99.90
51615;DHT22;37695;52.960;6.188;2022-12-07T00:06:45;3.70;99.90
51615;DHT22;37695;52.960;6.188;2022-12-07T00:09:14;3.80;99.90
51615;DHT22;37695;52.960;6.188;2022-12-07T00:11:40;3.80;99.90
51615;DHT22;37695;52.960;6.188;2022-12-07T00:14:10;3.80;99.90
51615;DHT22;37695;52.960;6.188;2022-12-07T00:16:35;3.80;99.90
51615;DHT22;37695;52.960;6.188;2022-12-07T00:19:02;3.80;99.90
51615;DHT22;37695;52.960;6.188;2022-12-07T00:21:32;3.80;99.90
51615;DHT22;37695;52.960;6.188;2022-12-07T00:23:59;3.80;99.90
51615;DHT22;37695;52.960;6.188;2022-12-07T00:26:30;3.80;99.90
51615;DHT22;37695;52.960;6.188;2022-12-07T00:28:58;3.90;99.90
51615;DHT22;37695;52.960;6.188;2022-12-07T00:31:27;3.90;99.90
51615;DHT22;37695;52.960;6.188;2022-12-07T00:33:53;4.00;99.90
51615;DHT22;37695;52.960;6.188;2022-12-07T00:36:21;4.00;99.90
51615;DHT22;37695;52.960;6.188;2022-12-07T00:38:47;4.00;99.90
51615;DHT22;37695;52.960;6.188;2022-12-07T00:41:15;4.10;99.90
51615;DHT22;37695;52.960;6.188;2022-12-07T00:43:42;4.10;99.90
51615;DHT22;37695;52.960;6.188;2022-12-07T00:46:08;4.10;99.90
51615;DHT22;37695;52.960;6.188;2022-12-07T00:48:34;4.10;99.90
51615;DHT22;37695;52.960;6.188;2022-12-07T00:51:00;4.10;99.90
51615;DHT22;37695;52.960;6.188;2022-12-07T00:53:27;4.10;99.90
51615;DHT22;37695;52.960;6.188;2022-12-07T00:55:52;4.00;99.90
51615;DHT22;37695;52.960;6.188;2022-12-07T00:58:19;4.00;99.90
51615;DHT22;37695;52.960;6.188;2022-12-07T01:00:44;4.00;99.90
51615;DHT22;37695;52.960;6.188;2022-12-07T01:03:12;3.90;99.90
51615;DHT22;37695;52.960;6.188;2022-12-07T01:05:38;3.90;99.90
51615;DHT22;37695;52.960;6.188;2022-12-07T01:08:04;3.90;99.90
51615;DHT22;37695;52.960;6.188;2022-12-07T01:10:30;3.90;99.90
51615;DHT22;37695;52.960;6.188;2022-12-07T01:12:57;3.90;99.90
51615;DHT22;37695;52.960;6.188;2022-12-07T01:15:23;3.80;99.90
51615;DHT22;37695;52.960;6.188;2022-12-07T01:17:50;3.80;99.90
51615;DHT22;37695;52.960;6.188;2022-12-07T01:20:15;3.80;99.90
51615;DHT22;37695;52.960;6.188;2022-12-07T01:22:42;3.90;99.90
51615;DHT22;37695;52.960;6.188;2022-12-07T01:25:09;3.80;99.90
51615;DHT22;37695;52.960;6.188;2022-12-07T01:27:35;3.80;99.90
51615;DHT22;37695;52.960;6.188;2022-12-07T01:30:02;3.80;99.90
51615;DHT22;37695;52.960;6.188;2022-12-07T01:32:28;4.50;99.90
51615;DHT22;37695;52.960;6.188;2022-12-07T01:34:54;3.80;99.90
51615;DHT22;37695;52.960;6.188;2022-12-07T01:37:20;4.10;99.90
51615;DHT22;37695;52.960;6.188;2022-12-07T01:39:49;3.90;99.90
51615;DHT22;37695;52.960;6.188;2022-12-07T01:42:14;3.80;99.90
51615;DHT22;37695;52.960;6.188;2022-12-07T01:47:53;3.80;99.90
51615;DHT22;37695;52.960;6.188;2022-12-07T01:50:22;3.80;99.90
51615;DHT22;37695;52.960;6.188;2022-12-07T01:52:50;3.80;99.90
51615;DHT22;37695;52.960;6.188;2022-12-07T01:55:18;3.80;99.90
51615;DHT22;37695;52.960;6.188;2022-12-07T01:57:48;3.80;99.90
51615;DHT22;37695;52.960;6.188;2022-12-07T02:00:14;3.80;99.90
51615;DHT22;37695;52.960;6.188;2022-12-07T02:05:31;3.90;99.90
51615;DHT22;37695;52.960;6.188;2022-12-07T02:07:58;3.90;99.90
51615;DHT22;37695;52.960;6.188;2022-12-07T02:10:29;3.90;99.90
51615;DHT22;37695;52.960;6.188;2022-12-07T02:13:08;4.00;99.90
51615;DHT22;37695;52.960;6.188;2022-12-07T02:15:51;4.00;99.90
51615;DHT22;37695;52.960;6.188;2022-12-07T02:24:37;4.00;99.90
51615;DHT22;37695;52.960;6.188;2022-12-07T02:30:11;4.10;99.90
51615;DHT22;37695;52.960;6.188;2022-12-07T02:32:55;4.10;99.90
51615;DHT22;37695;52.960;6.188;2022-12-07T02:35:32;4.10;99.90
51615;DHT22;37695;52.960;6.188;2022-12-07T02:38:16;4.10;99.90
51615;DHT22;37695;52.960;6.188;2022-12-07T02:41:02;4.10;99.90
51615;DHT22;37695;52.960;6.188;2022-12-07T02:43:52;4.10;99.90
51615;DHT22;37695;52.960;6.188;2022-12-07T02:46:24;4.10;99.90
51615;DHT22;37695;52.960;6.188;2022-12-07T02:48:52;4.10;99.90
51615;DHT22;37695;52.960;6.188;2022-12-07T02:51:19;4.10;99.90
51615;DHT22;37695;52.960;6.188;2022-12-07T02:53:46;4.10;99.90
51615;DHT22;37695;52.960;6.188;2022-12-07T02:56:39;4.10;99.90
51615;DHT22;37695;52.960;6.188;2022-12-07T03:11:09;4.00;99.90
51615;DHT22;37695;52.960;6.188;2022-12-07T03:16:14;3.90;99.90
51615;DHT22;37695;52.960;6.188;2022-12-07T03:18:51;3.90;99.90
51615;DHT22;37695;52.960;6.188;2022-12-07T03:21:24;3.90;99.90
51615;DHT22;37695;52.960;6.188;2022-12-07T03:23:55;3.80;99.90
51615;DHT22;37695;52.960;6.188;2022-12-07T03:26:24;3.80;99.90
51615;DHT22;37695;52.960;6.188;2022-12-07T03:28:55;3.80;99.90
51615;DHT22;37695;52.960;6.188;2022-12-07T03:31:32;3.80;99.90
51615;DHT22;37695;52.960;6.188;2022-12-07T03:34:10;3.80;99.90
51615;DHT22;37695;52.960;6.188;2022-12-07T03:36:50;3.70;99.90
51615;DHT22;37695;52.960;6.188;2022-12-07T03:39:33;3.70;99.90
51615;DHT22;37695;52.960;6.188;2022-12-07T03:42:00;3.70;99.90
51615;DHT22;37695;52.960;6.188;2022-12-07T03:44:27;3.70;99.90
51615;DHT22;37695;52.960;6.188;2022-12-07T03:47:01;3.70;99.90
51615;DHT22;37695;52.960;6.188;2022-12-07T03:49:40;3.70;99.90
51615;DHT22;37695;52.960;6.188;2022-12-07T03:55:05;3.50;99.90
51615;DHT22;37695;52.960;6.188;2022-12-07T03:57:33;3.50;99.90
51615;DHT22;37695;52.960;6.188;2022-12-07T03:59:59;3.50;99.90
51615;DHT22;37695;52.960;6.188;2022-12-07T04:02:27;3.50;99.90
51615;DHT22;37695;52.960;6.188;2022-12-07T04:04:54;3.50;99.90
51615;DHT22;37695;52.960;6.188;2022-12-07T04:07:20;3.60;99.90
51615;DHT22;37695;52.960;6.188;2022-12-07T04:09:45;3.60;99.90
51615;DHT22;37695;52.960;6.188;2022-12-07T04:12:11;3.50;99.90
51615;DHT22;37695;52.960;6.188;2022-12-07T04:14:36;3.60;99.90
51615;DHT22;37695;52.960;6.188;2022-12-07T04:17:02;3.60;99.90
51615;DHT22;37695;52.960;6.188;2022-12-07T04:19:30;3.60;99.90
51615;DHT22;37695;52.960;6.188;2022-12-07T04:21:57;3.60;99.90
51615;DHT22;37695;52.960;6.188;2022-12-07T04:24:23;3.60;99.90
51615;DHT22;37695;52.960;6.188;2022-12-07T04:26:49;3.60;99.90
51615;DHT22;37695;52.960;6.188;2022-12-07T04:29:16;3.60;99.90
51615;DHT22;37695;52.960;6.188;2022-12-07T04:31:42;3.60;99.90
51615;DHT22;37695;52.960;6.188;2022-12-07T04:34:08;3.70;99.90
51615;DHT22;37695;52.960;6.188;2022-12-07T04:36:34;3.70;99.90
51615;DHT22;37695;52.960;6.188;2022-12-07T04:39:00;3.70;99.90
51615;DHT22;37695;52.960;6.188;2022-12-07T04:41:26;3.60;99.90
51615;DHT22;37695;52.960;6.188;2022-12-07T04:43:54;3.60;99.90
51615;DHT22;37695;52.960;6.188;2022-12-07T04:46:20;3.60;99.90
51615;DHT22;37695;52.960;6.188;2022-12-07T04:48:46;3.70;99.90
51615;DHT22;37695;52.960;6.188;2022-12-07T04:51:11;3.60;99.90
51615;DHT22;37695;52.960;6.188;2022-12-07T04:53:37;3.60;99.90
51615;DHT22;37695;52.960;6.188;2022-12-07T04:56:03;3.50;99.90
51615;DHT22;37695;52.960;6.188;2022-12-07T04:58:28;3.50;99.90
51615;DHT22;37695;52.960;6.188;2022-12-07T05:00:55;3.50;99.90
51615;DHT22;37695;52.960;6.188;2022-12-07T05:03:20;3.40;99.90
51615;DHT22;37695;52.960;6.188;2022-12-07T05:05:46;3.40;99.90
51615;DHT22;37695;52.960;6.188;2022-12-07T05:08:11;3.40;99.90
51615;DHT22;37695;52.960;6.188;2022-12-07T05:10:37;3.30;99.90
51615;DHT22;37695;52.960;6.188;2022-12-07T05:13:02;3.30;99.90
51615;DHT22;37695;52.960;6.188;2022-12-07T05:15:28;3.30;99.90
51615;DHT22;37695;52.960;6.188;2022-12-07T05:17:53;3.30;99.90
51615;DHT22;37695;52.960;6.188;2022-12-07T05:20:19;3.20;99.90
51615;DHT22;37695;52.960;6.188;2022-12-07T05:22:44;3.20;99.90
51615;DHT22;37695;52.960;6.188;2022-12-07T05:25:10;3.20;99.90
51615;DHT22;37695;52.960;6.188;2022-12-07T05:27:36;3.20;99.90
51615;DHT22;37695;52.960;6.188;2022-12-07T05:30:01;3.20;99.90
51615;DHT22;37695;52.960;6.188;2022-12-07T05:32:27;3.20;99.90
51615;DHT22;37695;52.960;6.188;2022-12-07T05:34:52;3.20;99.90
51615;DHT22;37695;52.960;6.188;2022-12-07T05:37:20;3.20;99.90
51615;DHT22;37695;52.960;6.188;2022-12-07T05:39:45;3.20;99.90
51615;DHT22;37695;52.960;6.188;2022-12-07T05:42:11;3.30;99.90
51615;DHT22;37695;52.960;6.188;2022-12-07T05:44:37;3.30;99.90
51615;DHT22;37695;52.960;6.188;2022-12-07T05:47:03;3.30;99.90
51615;DHT22;37695;52.960;6.188;2022-12-07T05:49:29;3.40;99.90
51615;DHT22;37695;52.960;6.188;2022-12-07T05:51:54;3.40;99.90
51615;DHT22;37695;52.960;6.188;2022-12-07T05:54:20;3.50;99.90
51615;DHT22;37695;52.960;6.188;2022-12-07T05:56:45;3.50;99.90
51615;DHT22;37695;52.960;6.188;2022-12-07T05:59:11;3.50;99.90
51615;DHT22;37695;52.960;6.188;2022-12-07T06:02:18;3.50;99.90
51615;DHT22;37695;52.960;6.188;2022-12-07T06:04:46;3.50;99.90
51615;DHT22;37695;52.960;6.188;2022-12-07T06:07:14;3.50;99.90
51615;DHT22;37695;52.960;6.188;2022-12-07T06:09:39;3.50;99.90
51615;DHT22;37695;52.960;6.188;2022-12-07T06:12:06;3.50;99.90
51615;DHT22;37695;52.960;6.188;2022-12-07T06:14:50;3.50;99.90
51615;DHT22;37695;52.960;6.188;2022-12-07T06:17:16;3.50;99.90
51615;DHT22;37695;52.960;6.188;2022-12-07T06:19:41;3.50;99.90
51615;DHT22;37695;52.960;6.188;2022-12-07T06:22:08;3.50;99.90
51615;DHT22;37695;52.960;6.188;2022-12-07T06:24:35;3.50;99.90
51615;DHT22;37695;52.960;6.188;2022-12-07T06:27:00;3.50;99.90
51615;DHT22;37695;52.960;6.188;2022-12-07T06:29:26;3.50;99.90
51615;DHT22;37695;52.960;6.188;2022-12-07T06:31:51;3.40;99.90
51615;DHT22;37695;52.960;6.188;2022-12-07T06:34:20;3.40;99.90
51615;DHT22;37695;52.960;6.188;2022-12-07T06:36:47;3.50;99.90
51615;DHT22;37695;52.960;6.188;2022-12-07T06:39:20;3.50;99.90
51615;DHT22;37695;52.960;6.188;2022-12-07T06:41:45;3.50;99.90
51615;DHT22;37695;52.960;6.188;2022-12-07T06:44:11;3.50;99.90
51615;DHT22;37695;52.960;6.188;2022-12-07T06:46:37;3.40;99.90
51615;DHT22;37695;52.960;6.188;2022-12-07T06:49:03;3.40;99.90
51615;DHT22;37695;52.960;6.188;2022-12-07T06:51:30;3.40;99.90
51615;DHT22;37695;52.960;6.188;2022-12-07T06:53:56;3.80;99.90
51615;DHT22;37695;52.960;6.188;2022-12-07T06:56:21;3.40;99.90
51615;DHT22;37695;52.960;6.188;2022-12-07T06:58:48;3.40;99.90
51615;DHT22;37695;52.960;6.188;2022-12-07T07:01:16;3.50;99.90
51615;DHT22;37695;52.960;6.188;2022-12-07T07:03:43;3.40;99.90
51615;DHT22;37695;52.960;6.188;2022-12-07T07:06:09;3.40;99.90
51615;DHT22;37695;52.960;6.188;2022-12-07T07:08:35;3.40;99.90
51615;DHT22;37695;52.960;6.188;2022-12-07T07:11:01;3.40;99.90
51615;DHT22;37695;52.960;6.188;2022-12-07T07:13:27;3.30;99.90
51615;DHT22;37695;52.960;6.188;2022-12-07T07:15:53;3.30;99.90
51615;DHT22;37695;52.960;6.188;2022-12-07T07:18:19;3.30;99.90
51615;DHT22;37695;52.960;6.188;2022-12-07T07:20:44;3.30;99.90
51615;DHT22;37695;52.960;6.188;2022-12-07T07:23:10;3.40;99.90
51615;DHT22;37695;52.960;6.188;2022-12-07T07:25:35;3.40;99.90
51615;DHT22;37695;52.960;6.188;2022-12-07T07:28:01;3.40;99.90
51615;DHT22;37695;52.960;6.188;2022-12-07T07:30:27;3.40;99.90
51615;DHT22;37695;52.960;6.188;2022-12-07T07:32:57;3.40;99.90
51615;DHT22;37695;52.960;6.188;2022-12-07T07:35:23;3.50;99.90
51615;DHT22;37695;52.960;6.188;2022-12-07T07:37:49;3.50;99.90
51615;DHT22;37695;52.960;6.188;2022-12-07T07:40:15;3.50;99.90
51615;DHT22;37695;52.960;6.188;2022-12-07T07:42:40;3.50;99.90
51615;DHT22;37695;52.960;6.188;2022-12-07T07:45:06;3.50;99.90
51615;DHT22;37695;52.960;6.188;2022-12-07T07:47:32;3.50;99.90
51615;DHT22;37695;52.960;6.188;2022-12-07T07:49:57;3.50;99.90
51615;DHT22;37695;52.960;6.188;2022-12-07T07:52:23;3.50;99.90
51615;DHT22;37695;52.960;6.188;2022-12-07T07:54:49;3.40;99.90
51615;DHT22;37695;52.960;6.188;2022-12-07T07:57:16;3.40;99.90
51615;DHT22;37695;52.960;6.188;2022-12-07T07:59:42;3.30;99.90
51615;DHT22;37695;52.960;6.188;2022-12-07T08:02:14;3.30;99.90
51615;DHT22;37695;52.960;6.188;2022-12-07T08:04:40;3.20;99.90
51615;DHT22;37695;52.960;6.188;2022-12-07T08:07:05;3.20;99.90
51615;DHT22;37695;52.960;6.188;2022-12-07T08:09:31;3.10;99.90
51615;DHT22;37695;52.960;6.188;2022-12-07T08:11:57;3.10;99.90
51615;DHT22;37695;52.960;6.188;2022-12-07T08:14:23;3.10;99.90
51615;DHT22;37695;52.960;6.188;2022-12-07T08:16:49;3.10;99.90
51615;DHT22;37695;52.960;6.188;2022-12-07T08:19:14;3.20;99.90
51615;DHT22;37695;52.960;6.188;2022-12-07T08:21:40;3.30;99.90
51615;DHT22;37695;52.960;6.188;2022-12-07T08:24:06;3.30;99.90
51615;DHT22;37695;52.960;6.188;2022-12-07T08:26:31;3.30;99.90
51615;DHT22;37695;52.960;6.188;2022-12-07T08:28:57;3.40;99.90
51615;DHT22;37695;52.960;6.188;2022-12-07T08:31:22;3.50;99.90
51615;DHT22;37695;52.960;6.188;2022-12-07T08:33:48;3.50;99.90
51615;DHT22;37695;52.960;6.188;2022-12-07T08:36:14;3.50;99.90
51615;DHT22;37695;52.960;6.188;2022-12-07T08:38:41;3.50;99.90
51615;DHT22;37695;52.960;6.188;2022-12-07T08:41:07;3.40;99.90
51615;DHT22;37695;52.960;6.188;2022-12-07T08:43:33;3.40;99.90
51615;DHT22;37695;52.960;6.188;2022-12-07T08:48:34;3.30;99.90
51615;DHT22;37695;52.960;6.188;2022-12-07T08:51:02;3.30;99.90
51615;DHT22;37695;52.960;6.188;2022-12-07T08:53:28;3.30;99.90
51615;DHT22;37695;52.960;6.188;2022-12-07T08:55:56;3.30;99.90
51615;DHT22;37695;52.960;6.188;2022-12-07T08:58:22;3.30;99.90
51615;DHT22;37695;52.960;6.188;2022-12-07T09:00:48;3.30;99.90
51615;DHT22;37695;52.960;6.188;2022-12-07T09:03:13;3.40;99.90
51615;DHT22;37695;52.960;6.188;2022-12-07T09:05:39;3.50;99.90
51615;DHT22;37695;52.960;6.188;2022-12-07T09:08:05;3.50;99.90
51615;DHT22;37695;52.960;6.188;2022-12-07T09:10:31;3.60;99.90
51615;DHT22;37695;52.960;6.188;2022-12-07T09:12:58;3.70;99.90
51615;DHT22;37695;52.960;6.188;2022-12-07T09:15:29;3.80;99.90
51615;DHT22;37695;52.960;6.188;2022-12-07T09:17:55;3.90;99.90
51615;DHT22;37695;52.960;6.188;2022-12-07T09:20:21;4.00;99.90
51615;DHT22;37695;52.960;6.188;2022-12-07T09:22:46;4.10;99.90
51615;DHT22;37695;52.960;6.188;2022-12-07T09:25:12;4.10;99.90
51615;DHT22;37695;52.960;6.188;2022-12-07T09:27:37;4.10;99.90
51615;DHT22;37695;52.960;6.188;2022-12-07T09:30:04;4.20;99.90
51615;DHT22;37695;52.960;6.188;2022-12-07T09:32:30;4.20;99.90
51615;DHT22;37695;52.960;6.188;2022-12-07T09:34:55;4.30;99.90
51615;DHT22;37695;52.960;6.188;2022-12-07T09:37:21;4.20;99.90
51615;DHT22;37695;52.960;6.188;2022-12-07T09:39:46;4.20;99.90
51615;DHT22;37695;52.960;6.188;2022-12-07T09:42:28;4.20;99.90
51615;DHT22;37695;52.960;6.188;2022-12-07T09:44:55;4.10;99.90
51615;DHT22;37695;52.960;6.188;2022-12-07T09:47:21;4.10;99.90
51615;DHT22;37695;52.960;6.188;2022-12-07T09:49:46;4.10;99.90
51615;DHT22;37695;52.960;6.188;2022-12-07T09:54:41;4.00;99.90
51615;DHT22;37695;52.960;6.188;2022-12-07T09:57:11;4.00;99.90
51615;DHT22;37695;52.960;6.188;2022-12-07T09:59:37;4.10;99.90
51615;DHT22;37695;52.960;6.188;2022-12-07T10:02:24;4.10;99.90
51615;DHT22;37695;52.960;6.188;2022-12-07T10:04:50;4.20;99.90
51615;DHT22;37695;52.960;6.188;2022-12-07T10:07:16;4.30;99.90
51615;DHT22;37695;52.960;6.188;2022-12-07T10:09:41;4.40;99.90
51615;DHT22;37695;52.960;6.188;2022-12-07T10:12:10;4.50;99.90
51615;DHT22;37695;52.960;6.188;2022-12-07T10:14:39;4.60;99.90
51615;DHT22;37695;52.960;6.188;2022-12-07T10:17:28;4.70;99.90
51615;DHT22;37695;52.960;6.188;2022-12-07T10:20:12;4.80;99.90
51615;DHT22;37695;52.960;6.188;2022-12-07T10:22:54;4.90;99.90
51615;DHT22;37695;52.960;6.188;2022-12-07T10:25:21;5.00;99.90
51615;DHT22;37695;52.960;6.188;2022-12-07T10:28:18;5.00;99.90
51615;DHT22;37695;52.960;6.188;2022-12-07T10:31:15;5.00;99.90
51615;DHT22;37695;52.960;6.188;2022-12-07T10:33:59;5.00;99.90
51615;DHT22;37695;52.960;6.188;2022-12-07T10:36:37;5.00;99.90
51615;DHT22;37695;52.960;6.188;2022-12-07T10:39:19;5.10;99.90
51615;DHT22;37695;52.960;6.188;2022-12-07T10:42:02;5.20;99.90
51615;DHT22;37695;52.960;6.188;2022-12-07T10:44:30;5.30;99.90
51615;DHT22;37695;52.960;6.188;2022-12-07T10:47:19;5.30;99.90
51615;DHT22;37695;52.960;6.188;2022-12-07T10:50:13;5.30;99.90
51615;DHT22;37695;52.960;6.188;2022-12-07T10:53:23;5.40;99.90
51615;DHT22;37695;52.960;6.188;2022-12-07T11:04:29;5.50;99.90
51615;DHT22;37695;52.960;6.188;2022-12-07T11:07:18;5.50;99.90
51615;DHT22;37695;52.960;6.188;2022-12-07T11:12:23;5.50;99.90
51615;DHT22;37695;52.960;6.188;2022-12-07T11:15:11;5.50;99.90
51615;DHT22;37695;52.960;6.188;2022-12-07T11:18:07;5.50;99.90
51615;DHT22;37695;52.960;6.188;2022-12-07T11:21:00;5.40;99.90
51615;DHT22;37695;52.960;6.188;2022-12-07T11:29:15;5.40;99.90
51615;DHT22;37695;52.960;6.188;2022-12-07T11:34:57;5.40;99.90
51615;DHT22;37695;52.960;6.188;2022-12-07T11:37:34;5.30;99.90
51615;DHT22;37695;52.960;6.188;2022-12-07T11:40:05;5.30;99.90
51615;DHT22;37695;52.960;6.188;2022-12-07T11:42:37;5.30;99.90
51615;DHT22;37695;52.960;6.188;2022-12-07T11:45:16;5.30;99.90
51615;DHT22;37695;52.960;6.188;2022-12-07T11:47:59;5.30;99.90
51615;DHT22;37695;52.960;6.188;2022-12-07T11:50:39;5.40;99.90
51615;DHT22;37695;52.960;6.188;2022-12-07T11:55:56;5.50;99.90
51615;DHT22;37695;52.960;6.188;2022-12-07T12:01:35;5.70;99.90
51615;DHT22;37695;52.960;6.188;2022-12-07T12:06:34;5.90;99.90
51615;DHT22;37695;52.960;6.188;2022-12-07T12:09:12;6.00;99.90
51615;DHT22;37695;52.960;6.188;2022-12-07T12:17:45;6.20;99.90
51615;DHT22;37695;52.960;6.188;2022-12-07T12:20:23;6.30;99.90
51615;DHT22;37695;52.960;6.188;2022-12-07T12:22:53;6.40;99.90
51615;DHT22;37695;52.960;6.188;2022-12-07T12:25:29;6.50;99.90
51615;DHT22;37695;52.960;6.188;2022-12-07T12:27:58;6.50;99.90
51615;DHT22;37695;52.960;6.188;2022-12-07T12:30:32;6.50;99.90
51615;DHT22;37695;52.960;6.188;2022-12-07T12:33:28;6.60;99.90
51615;DHT22;37695;52.960;6.188;2022-12-07T12:36:25;6.60;99.90
51615;DHT22;37695;52.960;6.188;2022-12-07T12:47:02;6.20;99.90
51615;DHT22;37695;52.960;6.188;2022-12-07T12:51:57;6.00;99.90
51615;DHT22;37695;52.960;6.188;2022-12-07T12:54:28;5.90;99.90
51615;DHT22;37695;52.960;6.188;2022-12-07T12:59:34;5.90;99.90
51615;DHT22;37695;52.960;6.188;2022-12-07T13:02:21;5.90;99.90
51615;DHT22;37695;52.960;6.188;2022-12-07T13:04:58;5.90;99.90
51615;DHT22;37695;52.960;6.188;2022-12-07T13:13:08;5.80;99.90
51615;DHT22;37695;52.960;6.188;2022-12-07T13:15:53;5.80;99.90
51615;DHT22;37695;52.960;6.188;2022-12-07T13:18:35;5.80;99.90
51615;DHT22;37695;52.960;6.188;2022-12-07T13:21:39;5.80;99.90
51615;DHT22;37695;52.960;6.188;2022-12-07T13:29:11;5.80;99.90
51615;DHT22;37695;52.960;6.188;2022-12-07T13:34:38;5.70;99.90
51615;DHT22;37695;52.960;6.188;2022-12-07T13:37:12;5.60;99.90
51615;DHT22;37695;52.960;6.188;2022-12-07T13:39:50;5.60;99.90
51615;DHT22;37695;52.960;6.188;2022-12-07T13:44:51;5.50;99.90
51615;DHT22;37695;52.960;6.188;2022-12-07T13:47:27;5.50;99.90
51615;DHT22;37695;52.960;6.188;2022-12-07T13:49:56;5.50;99.90
51615;DHT22;37695;52.960;6.188;2022-12-07T13:52:26;5.40;99.90
51615;DHT22;37695;52.960;6.188;2022-12-07T13:55:13;5.40;99.90
51615;DHT22;37695;52.960;6.188;2022-12-07T13:57:39;5.40;99.90
51615;DHT22;37695;52.960;6.188;2022-12-07T14:00:15;5.40;99.90
51615;DHT22;37695;52.960;6.188;2022-12-07T14:05:36;5.40;99.90
51615;DHT22;37695;52.960;6.188;2022-12-07T14:15:53;5.20;99.90
51615;DHT22;37695;52.960;6.188;2022-12-07T14:18:38;5.20;99.90
51615;DHT22;37695;52.960;6.188;2022-12-07T14:21:15;5.20;99.90
51615;DHT22;37695;52.960;6.188;2022-12-07T14:23:42;5.10;99.90
51615;DHT22;37695;52.960;6.188;2022-12-07T14:26:12;5.10;99.90
51615;DHT22;37695;52.960;6.188;2022-12-07T14:28:39;5.10;99.90
51615;DHT22;37695;52.960;6.188;2022-12-07T14:31:14;5.10;99.90
51615;DHT22;37695;52.960;6.188;2022-12-07T14:33:40;5.10;99.90
51615;DHT22;37695;52.960;6.188;2022-12-07T14:36:08;5.00;99.90
51615;DHT22;37695;52.960;6.188;2022-12-07T14:38:34;5.00;99.90
51615;DHT22;37695;52.960;6.188;2022-12-07T14:41:00;5.00;99.90
51615;DHT22;37695;52.960;6.188;2022-12-07T14:43:44;5.00;99.90
51615;DHT22;37695;52.960;6.188;2022-12-07T14:46:10;4.90;99.90
51615;DHT22;37695;52.960;6.188;2022-12-07T14:48:35;4.90;99.90
51615;DHT22;37695;52.960;6.188;2022-12-07T14:51:01;4.90;99.90
51615;DHT22;37695;52.960;6.188;2022-12-07T14:53:39;4.90;99.90
51615;DHT22;37695;52.960;6.188;2022-12-07T14:56:05;4.80;99.90
51615;DHT22;37695;52.960;6.188;2022-12-07T14:58:31;4.80;99.90
51615;DHT22;37695;52.960;6.188;2022-12-07T15:00:58;4.70;99.90
51615;DHT22;37695;52.960;6.188;2022-12-07T15:03:23;4.70;99.90
51615;DHT22;37695;52.960;6.188;2022-12-07T15:05:49;4.60;99.90
51615;DHT22;37695;52.960;6.188;2022-12-07T15:08:14;4.50;99.90
51615;DHT22;37695;52.960;6.188;2022-12-07T15:10:40;4.50;99.90
51615;DHT22;37695;52.960;6.188;2022-12-07T15:13:07;4.50;99.90
51615;DHT22;37695;52.960;6.188;2022-12-07T15:15:53;4.40;99.90
51615;DHT22;37695;52.960;6.188;2022-12-07T15:18:19;4.40;99.90
51615;DHT22;37695;52.960;6.188;2022-12-07T15:20:46;4.50;99.90
51615;DHT22;37695;52.960;6.188;2022-12-07T15:23:12;4.40;99.90
51615;DHT22;37695;52.960;6.188;2022-12-07T15:25:42;4.40;99.90
51615;DHT22;37695;52.960;6.188;2022-12-07T15:28:08;4.40;99.90
51615;DHT22;37695;52.960;6.188;2022-12-07T15:30:33;4.40;99.90
51615;DHT22;37695;52.960;6.188;2022-12-07T15:32:59;4.40;99.90
51615;DHT22;37695;52.960;6.188;2022-12-07T15:35:25;4.40;99.90
51615;DHT22;37695;52.960;6.188;2022-12-07T15:37:50;4.40;99.90
51615;DHT22;37695;52.960;6.188;2022-12-07T15:40:16;4.40;99.90
51615;DHT22;37695;52.960;6.188;2022-12-07T15:42:42;4.40;99.90
51615;DHT22;37695;52.960;6.188;2022-12-07T15:45:08;4.30;99.90
51615;DHT22;37695;52.960;6.188;2022-12-07T15:47:40;4.30;99.90
51615;DHT22;37695;52.960;6.188;2022-12-07T15:50:09;4.30;99.90
51615;DHT22;37695;52.960;6.188;2022-12-07T15:52:35;4.20;99.90
51615;DHT22;37695;52.960;6.188;2022-12-07T15:55:02;4.20;99.90
51615;DHT22;37695;52.960;6.188;2022-12-07T15:57:31;4.30;99.90
51615;DHT22;37695;52.960;6.188;2022-12-07T15:59:57;4.30;99.90
51615;DHT22;37695;52.960;6.188;2022-12-07T16:02:23;4.20;99.90
51615;DHT22;37695;52.960;6.188;2022-12-07T16:04:49;4.20;99.90
51615;DHT22;37695;52.960;6.188;2022-12-07T16:07:15;4.20;99.90
51615;DHT22;37695;52.960;6.188;2022-12-07T16:09:42;4.30;99.90
51615;DHT22;37695;52.960;6.188;2022-12-07T16:12:09;4.30;99.90
51615;DHT22;37695;52.960;6.188;2022-12-07T16:14:35;4.30;99.90
51615;DHT22;37695;52.960;6.188;2022-12-07T16:17:01;4.30;99.90
51615;DHT22;37695;52.960;6.188;2022-12-07T16:19:27;4.30;99.90
51615;DHT22;37695;52.960;6.188;2022-12-07T16:21:52;4.30;99.90
51615;DHT22;37695;52.960;6.188;2022-12-07T16:24:18;4.30;99.90
51615;DHT22;37695;52.960;6.188;2022-12-07T16:26:44;4.30;99.90
51615;DHT22;37695;52.960;6.188;2022-12-07T16:29:12;4.30;99.90
51615;DHT22;37695;52.960;6.188;2022-12-07T16:31:38;4.30;99.90
51615;DHT22;37695;52.960;6.188;2022-12-07T16:34:03;4.30;99.90
51615;DHT22;37695;52.960;6.188;2022-12-07T16:36:29;4.20;99.90
51615;DHT22;37695;52.960;6.188;2022-12-07T16:38:55;4.20;99.90
51615;DHT22;37695;52.960;6.188;2022-12-07T16:41:20;4.20;99.90
51615;DHT22;37695;52.960;6.188;2022-12-07T16:43:46;4.10;99.90
51615;DHT22;37695;52.960;6.188;2022-12-07T16:46:12;4.10;99.90
51615;DHT22;37695;52.960;6.188;2022-12-07T16:48:39;4.10;99.90
51615;DHT22;37695;52.960;6.188;2022-12-07T16:51:07;4.00;99.90
51615;DHT22;37695;52.960;6.188;2022-12-07T16:53:38;4.00;99.90
51615;DHT22;37695;52.960;6.188;2022-12-07T16:56:04;3.90;99.90
51615;DHT22;37695;52.960;6.188;2022-12-07T16:58:34;3.90;99.90
51615;DHT22;37695;52.960;6.188;2022-12-07T17:01:17;3.90;99.90
51615;DHT22;37695;52.960;6.188;2022-12-07T17:03:44;3.80;99.90
51615;DHT22;37695;52.960;6.188;2022-12-07T17:06:21;3.80;99.90
51615;DHT22;37695;52.960;6.188;2022-12-07T17:08:48;3.80;99.90
51615;DHT22;37695;52.960;6.188;2022-12-07T17:11:17;3.80;99.90
51615;DHT22;37695;52.960;6.188;2022-12-07T17:13:43;3.80;99.90
51615;DHT22;37695;52.960;6.188;2022-12-07T17:16:28;3.80;99.90
51615;DHT22;37695;52.960;6.188;2022-12-07T17:18:54;3.80;99.90
51615;DHT22;37695;52.960;6.188;2022-12-07T17:21:20;3.80;99.90
51615;DHT22;37695;52.960;6.188;2022-12-07T17:23:46;3.80;99.90
51615;DHT22;37695;52.960;6.188;2022-12-07T17:26:16;3.80;99.90
51615;DHT22;37695;52.960;6.188;2022-12-07T17:28:42;3.80;99.90
51615;DHT22;37695;52.960;6.188;2022-12-07T17:31:10;3.80;99.90
51615;DHT22;37695;52.960;6.188;2022-12-07T17:33:36;3.80;99.90
51615;DHT22;37695;52.960;6.188;2022-12-07T17:36:10;3.90;99.90
51615;DHT22;37695;52.960;6.188;2022-12-07T17:38:36;3.90;99.90
51615;DHT22;37695;52.960;6.188;2022-12-07T17:41:11;3.90;99.90
51615;DHT22;37695;52.960;6.188;2022-12-07T17:43:38;3.90;99.90
51615;DHT22;37695;52.960;6.188;2022-12-07T17:46:09;3.90;99.90
51615;DHT22;37695;52.960;6.188;2022-12-07T17:48:35;3.90;99.90
51615;DHT22;37695;52.960;6.188;2022-12-07T17:51:01;3.90;99.90
51615;DHT22;37695;52.960;6.188;2022-12-07T17:53:50;5.30;99.90